Aviation Digital Data Service (ADDS)

Output produced by METARs form (0530 UTC 19 March 2019)
found at http://www.aviationweather.gov/metar/data/
 
METAR text: KMWH 190452Z 36005KT 10SM CLR 02/M02 A3025 RMK AO2 SLP253 T00221017
Conditions at: KMWH (MOSES LAKE , WA, US) observed 0452 UTC 19 March 2019
Temperature: 2.2°C (36°F)
Dewpoint: -1.7°C (29°F) [RH = 75%]
Pressure (altimeter): 30.25 inches Hg (1024.5 mb)
[Sea-level pressure: 1025.3 mb]
Winds: from the N (360 degrees) at 6 MPH (5 knots; 2.6 m/s)
Visibility: 10 or more miles (16+ km)
Ceiling: at least 12,000 feet AGL
Clouds: sky clear below 12,000 feet AGL
Weather: no significant weather observed at this time

METAR text: KMWH 190352Z 34005KT 10SM CLR 03/M02 A3024 RMK AO2 SLP252 T00281017
Conditions at: KMWH (MOSES LAKE , WA, US) observed 0352 UTC 19 March 2019
Temperature: 2.8°C (37°F)
Dewpoint: -1.7°C (29°F) [RH = 72%]
Pressure (altimeter): 30.24 inches Hg (1024.1 mb)
[Sea-level pressure: 1025.2 mb]
Winds: from the NNW (340 degrees) at 6 MPH (5 knots; 2.6 m/s)
Visibility: 10 or more miles (16+ km)
Ceiling: at least 12,000 feet AGL
Clouds: sky clear below 12,000 feet AGL
Weather: no significant weather observed at this time

METAR text: KMWH 190252Z 35010KT 10SM CLR 06/00 A3024 RMK AO2 SLP252 T00560000 56008
Conditions at: KMWH (MOSES LAKE , WA, US) observed 0252 UTC 19 March 2019
Temperature: 5.6°C (42°F)
Dewpoint: 0.0°C (32°F) [RH = 67%]
Pressure (altimeter): 30.24 inches Hg (1024.1 mb)
[Sea-level pressure: 1025.2 mb]
Winds: from the N (350 degrees) at 12 MPH (10 knots; 5.1 m/s)
Visibility: 10 or more miles (16+ km)
Ceiling: at least 12,000 feet AGL
Clouds: sky clear below 12,000 feet AGL
Weather: no significant weather observed at this time

METAR text: KMWH 190152Z 35008KT 10SM CLR 08/01 A3024 RMK AO2 SLP252 T00780011
Conditions at: KMWH (MOSES LAKE , WA, US) observed 0152 UTC 19 March 2019
Temperature: 7.8°C (46°F)
Dewpoint: 1.1°C (34°F) [RH = 63%]
Pressure (altimeter): 30.24 inches Hg (1024.1 mb)
[Sea-level pressure: 1025.2 mb]
Winds: from the N (350 degrees) at 9 MPH (8 knots; 4.1 m/s)
Visibility: 10 or more miles (16+ km)
Ceiling: at least 12,000 feet AGL
Clouds: sky clear below 12,000 feet AGL
Weather: no significant weather observed at this time

METAR text: KMWH 190052Z 34009KT 10SM CLR 11/02 A3025 RMK AO2 SLP254 T01110017
Conditions at: KMWH (MOSES LAKE , WA, US) observed 0052 UTC 19 March 2019
Temperature: 11.1°C (52°F)
Dewpoint: 1.7°C (35°F) [RH = 52%]
Pressure (altimeter): 30.25 inches Hg (1024.5 mb)
[Sea-level pressure: 1025.4 mb]
Winds: from the NNW (340 degrees) at 10 MPH (9 knots; 4.6 m/s)
Visibility: 10 or more miles (16+ km)
Ceiling: at least 12,000 feet AGL
Clouds: sky clear below 12,000 feet AGL
Weather: no significant weather observed at this time

METAR text: KMWH 182352Z 34010KT 10SM CLR 12/02 A3026 RMK AO2 SLP257 T01220022 10128 20072 56018
Conditions at: KMWH (MOSES LAKE , WA, US) observed 2352 UTC 18 March 2019
Temperature: 12.2°C (54°F)
Dewpoint: 2.2°C (36°F) [RH = 50%]
Pressure (altimeter): 30.26 inches Hg (1024.8 mb)
[Sea-level pressure: 1025.7 mb]
Winds: from the NNW (340 degrees) at 12 MPH (10 knots; 5.1 m/s)
Visibility: 10 or more miles (16+ km)
Ceiling: at least 12,000 feet AGL
Clouds: sky clear below 12,000 feet AGL
Weather: no significant weather observed at this time

METAR text: KMWH 182252Z 33007KT 10SM CLR 13/02 A3028 RMK AO2 SLP262 T01280022
Conditions at: KMWH (MOSES LAKE , WA, US) observed 2252 UTC 18 March 2019
Temperature: 12.8°C (55°F)
Dewpoint: 2.2°C (36°F) [RH = 48%]
Pressure (altimeter): 30.28 inches Hg (1025.5 mb)
[Sea-level pressure: 1026.2 mb]
Winds: from the NNW (330 degrees) at 8 MPH (7 knots; 3.6 m/s)
Visibility: 10 or more miles (16+ km)
Ceiling: at least 12,000 feet AGL
Clouds: sky clear below 12,000 feet AGL
Weather: no significant weather observed at this time

METAR text: KMWH 182152Z 33007KT 10SM CLR 12/02 A3030 RMK AO2 SLP269 T01170022
Conditions at: KMWH (MOSES LAKE , WA, US) observed 2152 UTC 18 March 2019
Temperature: 11.7°C (53°F)
Dewpoint: 2.2°C (36°F) [RH = 52%]
Pressure (altimeter): 30.30 inches Hg (1026.2 mb)
[Sea-level pressure: 1026.9 mb]
Winds: from the NNW (330 degrees) at 8 MPH (7 knots; 3.6 m/s)
Visibility: 10 or more miles (16+ km)
Ceiling: at least 12,000 feet AGL
Clouds: sky clear below 12,000 feet AGL
Weather: no significant weather observed at this time

METAR text: KMWH 182052Z 32006KT 10SM CLR 11/02 A3032 RMK AO2 SLP276 T01110022 58014
Conditions at: KMWH (MOSES LAKE , WA, US) observed 2052 UTC 18 March 2019
Temperature: 11.1°C (52°F)
Dewpoint: 2.2°C (36°F) [RH = 54%]
Pressure (altimeter): 30.32 inches Hg (1026.8 mb)
[Sea-level pressure: 1027.6 mb]
Winds: from the NW (320 degrees) at 7 MPH (6 knots; 3.1 m/s)
Visibility: 10 or more miles (16+ km)
Ceiling: at least 12,000 feet AGL
Clouds: sky clear below 12,000 feet AGL
Weather: no significant weather observed at this time

METAR text: KMWH 181952Z 32007KT 10SM CLR 10/02 A3035 RMK AO2 SLP285 T01000017
Conditions at: KMWH (MOSES LAKE , WA, US) observed 1952 UTC 18 March 2019
Temperature: 10.0°C (50°F)
Dewpoint: 1.7°C (35°F) [RH = 56%]
Pressure (altimeter): 30.35 inches Hg (1027.9 mb)
[Sea-level pressure: 1028.5 mb]
Winds: from the NW (320 degrees) at 8 MPH (7 knots; 3.6 m/s)
Visibility: 10 or more miles (16+ km)
Ceiling: at least 12,000 feet AGL
Clouds: sky clear below 12,000 feet AGL
Weather: no significant weather observed at this time

METAR text: KMWH 181852Z 32005KT 10SM CLR 09/01 A3036 RMK AO2 SLP289 T00890006
Conditions at: KMWH (MOSES LAKE , WA, US) observed 1852 UTC 18 March 2019
Temperature: 8.9°C (48°F)
Dewpoint: 0.6°C (33°F) [RH = 56%]
Pressure (altimeter): 30.36 inches Hg (1028.2 mb)
[Sea-level pressure: 1028.9 mb]
Winds: from the NW (320 degrees) at 6 MPH (5 knots; 2.6 m/s)
Visibility: 10 or more miles (16+ km)
Ceiling: at least 12,000 feet AGL
Clouds: sky clear below 12,000 feet AGL
Weather: no significant weather observed at this time

METAR text: KMWH 181752Z 35005KT 10SM CLR 07/00 A3036 RMK AO2 SLP290 T00720000 10072 21039 50003
Conditions at: KMWH (MOSES LAKE , WA, US) observed 1752 UTC 18 March 2019
Temperature: 7.2°C (45°F)
Dewpoint: 0.0°C (32°F) [RH = 60%]
Pressure (altimeter): 30.36 inches Hg (1028.2 mb)
[Sea-level pressure: 1029.0 mb]
Winds: from the N (350 degrees) at 6 MPH (5 knots; 2.6 m/s)
Visibility: 10 or more miles (16+ km)
Ceiling: at least 12,000 feet AGL
Clouds: sky clear below 12,000 feet AGL
Weather: no significant weather observed at this time

METAR text: KMWH 181652Z 33003KT 10SM CLR 04/M01 A3037 RMK AO2 SLP293 T00391011
Conditions at: KMWH (MOSES LAKE , WA, US) observed 1652 UTC 18 March 2019
Temperature: 3.9°C (39°F)
Dewpoint: -1.1°C (30°F) [RH = 70%]
Pressure (altimeter): 30.37 inches Hg (1028.5 mb)
[Sea-level pressure: 1029.3 mb]
Winds: from the NNW (330 degrees) at 3 MPH (3 knots; 1.5 m/s)
Visibility: 10 or more miles (16+ km)
Ceiling: at least 12,000 feet AGL
Clouds: sky clear below 12,000 feet AGL
Weather: no significant weather observed at this time

METAR text: KMWH 181552Z 35003KT 10SM CLR 01/M03 A3036 RMK AO2 SLP291 T00111028
Conditions at: KMWH (MOSES LAKE , WA, US) observed 1552 UTC 18 March 2019
Temperature: 1.1°C (34°F)
Dewpoint: -2.8°C (27°F) [RH = 75%]
Pressure (altimeter): 30.36 inches Hg (1028.2 mb)
[Sea-level pressure: 1029.1 mb]
Winds: from the N (350 degrees) at 3 MPH (3 knots; 1.5 m/s)
Visibility: 10 or more miles (16+ km)
Ceiling: at least 12,000 feet AGL
Clouds: sky clear below 12,000 feet AGL
Weather: no significant weather observed at this time

METAR text: KMWH 181452Z 34005KT 10SM CLR M02/M05 A3035 RMK AO2 SLP290 T10171050 53001
Conditions at: KMWH (MOSES LAKE , WA, US) observed 1452 UTC 18 March 2019
Temperature: -1.7°C (29°F)
Dewpoint: -5.0°C (23°F) [RH = 78%]
Pressure (altimeter): 30.35 inches Hg (1027.9 mb)
[Sea-level pressure: 1029.0 mb]
Winds: from the NNW (340 degrees) at 6 MPH (5 knots; 2.6 m/s)
Visibility: 10 or more miles (16+ km)
Ceiling: at least 12,000 feet AGL
Clouds: sky clear below 12,000 feet AGL
Weather: no significant weather observed at this time

METAR text: KMWH 181352Z 01007KT 10SM CLR M04/M06 A3035 RMK AO2 SLP291 T10391061
Conditions at: KMWH (MOSES LAKE , WA, US) observed 1352 UTC 18 March 2019
Temperature: -3.9°C (25°F)
Dewpoint: -6.1°C (21°F) [RH = 85%]
Pressure (altimeter): 30.35 inches Hg (1027.9 mb)
[Sea-level pressure: 1029.1 mb]
Winds: from the N (10 degrees) at 8 MPH (7 knots; 3.6 m/s)
Visibility: 10 or more miles (16+ km)
Ceiling: at least 12,000 feet AGL
Clouds: sky clear below 12,000 feet AGL
Weather: no significant weather observed at this time

METAR text: KMWH 181252Z 36007KT 10SM CLR M03/M06 A3035 RMK AO2 SLP286 T10331061
Conditions at: KMWH (MOSES LAKE , WA, US) observed 1252 UTC 18 March 2019
Temperature: -3.3°C (26°F)
Dewpoint: -6.1°C (21°F) [RH = 81%]
Pressure (altimeter): 30.35 inches Hg (1027.9 mb)
[Sea-level pressure: 1028.6 mb]
Winds: from the N (360 degrees) at 8 MPH (7 knots; 3.6 m/s)
Visibility: 10 or more miles (16+ km)
Ceiling: at least 12,000 feet AGL
Clouds: sky clear below 12,000 feet AGL
Weather: no significant weather observed at this time

METAR text: KMWH 181152Z AUTO 35009KT 10SM CLR M03/M06 A3035 RMK AO2 SLP287 T10281056 10011 21033 53000
Conditions at: KMWH (MOSES LAKE , WA, US) observed 1152 UTC 18 March 2019
Temperature: -2.8°C (27°F)
Dewpoint: -5.6°C (22°F) [RH = 81%]
Pressure (altimeter): 30.35 inches Hg (1027.9 mb)
[Sea-level pressure: 1028.7 mb]
Winds: from the N (350 degrees) at 10 MPH (9 knots; 4.6 m/s)
Visibility: 10 or more miles (16+ km)
Ceiling: at least 12,000 feet AGL
Clouds: sky clear below 12,000 feet AGL
Weather: automated observation with no human augmentation;
there may or may not be significant weather present at this time

METAR text: KMWH 181052Z AUTO 35006KT 10SM CLR M03/M06 A3034 RMK AO2 SLP285 T10331056
Conditions at: KMWH (MOSES LAKE , WA, US) observed 1052 UTC 18 March 2019
Temperature: -3.3°C (26°F)
Dewpoint: -5.6°C (22°F) [RH = 84%]
Pressure (altimeter): 30.34 inches Hg (1027.5 mb)
[Sea-level pressure: 1028.5 mb]
Winds: from the N (350 degrees) at 7 MPH (6 knots; 3.1 m/s)
Visibility: 10 or more miles (16+ km)
Ceiling: at least 12,000 feet AGL
Clouds: sky clear below 12,000 feet AGL
Weather: automated observation with no human augmentation;
there may or may not be significant weather present at this time

METAR text: KMWH 180952Z AUTO 36004KT 10SM CLR M03/M06 A3035 RMK AO2 SLP286 T10281056
Conditions at: KMWH (MOSES LAKE , WA, US) observed 0952 UTC 18 March 2019
Temperature: -2.8°C (27°F)
Dewpoint: -5.6°C (22°F) [RH = 81%]
Pressure (altimeter): 30.35 inches Hg (1027.9 mb)
[Sea-level pressure: 1028.6 mb]
Winds: from the N (360 degrees) at 5 MPH (4 knots; 2.1 m/s)
Visibility: 10 or more miles (16+ km)
Ceiling: at least 12,000 feet AGL
Clouds: sky clear below 12,000 feet AGL
Weather: automated observation with no human augmentation;
there may or may not be significant weather present at this time

METAR text: KMWH 180852Z AUTO 01004KT 10SM CLR M02/M04 A3035 RMK AO2 SLP287 T10221044 53001
Conditions at: KMWH (MOSES LAKE , WA, US) observed 0852 UTC 18 March 2019
Temperature: -2.2°C (28°F)
Dewpoint: -4.4°C (24°F) [RH = 85%]
Pressure (altimeter): 30.35 inches Hg (1027.9 mb)
[Sea-level pressure: 1028.7 mb]
Winds: from the N (10 degrees) at 5 MPH (4 knots; 2.1 m/s)
Visibility: 10 or more miles (16+ km)
Ceiling: at least 12,000 feet AGL
Clouds: sky clear below 12,000 feet AGL
Weather: automated observation with no human augmentation;
there may or may not be significant weather present at this time

METAR text: KMWH 180752Z AUTO 36004KT 10SM CLR M02/M04 A3035 RMK AO2 SLP286 T10171044 401061017
Conditions at: KMWH (MOSES LAKE , WA, US) observed 0752 UTC 18 March 2019
Temperature: -1.7°C (29°F)
Dewpoint: -4.4°C (24°F) [RH = 82%]
Pressure (altimeter): 30.35 inches Hg (1027.9 mb)
[Sea-level pressure: 1028.6 mb]
Winds: from the N (360 degrees) at 5 MPH (4 knots; 2.1 m/s)
Visibility: 10 or more miles (16+ km)
Ceiling: at least 12,000 feet AGL
Clouds: sky clear below 12,000 feet AGL
Weather: automated observation with no human augmentation;
there may or may not be significant weather present at this time

METAR text: KMWH 180652Z AUTO 35004KT 10SM CLR M01/M03 A3035 RMK AO2 SLP286 T10061033
Conditions at: KMWH (MOSES LAKE , WA, US) observed 0652 UTC 18 March 2019
Temperature: -0.6°C (31°F)
Dewpoint: -3.3°C (26°F) [RH = 82%]
Pressure (altimeter): 30.35 inches Hg (1027.9 mb)
[Sea-level pressure: 1028.6 mb]
Winds: from the N (350 degrees) at 5 MPH (4 knots; 2.1 m/s)
Visibility: 10 or more miles (16+ km)
Ceiling: at least 12,000 feet AGL
Clouds: sky clear below 12,000 feet AGL
Weather: automated observation with no human augmentation;
there may or may not be significant weather present at this time

METAR text: KMWH 180552Z AUTO 00000KT 10SM CLR 01/M02 A3035 RMK AO2 SLP286 T00111022 10100 20006 50004
Conditions at: KMWH (MOSES LAKE , WA, US) observed 0552 UTC 18 March 2019
Temperature: 1.1°C (34°F)
Dewpoint: -2.2°C (28°F) [RH = 79%]
Pressure (altimeter): 30.35 inches Hg (1027.9 mb)
[Sea-level pressure: 1028.6 mb]
Winds: calm
Visibility: 10 or more miles (16+ km)
Ceiling: at least 12,000 feet AGL
Clouds: sky clear below 12,000 feet AGL
Weather: automated observation with no human augmentation;
there may or may not be significant weather present at this time

METAR text: KMWH 180452Z AUTO 06003KT 10SM CLR 03/M02 A3035 RMK AO2 SLP288 T00331017
Conditions at: KMWH (MOSES LAKE , WA, US) observed 0452 UTC 18 March 2019
Temperature: 3.3°C (38°F)
Dewpoint: -1.7°C (29°F) [RH = 70%]
Pressure (altimeter): 30.35 inches Hg (1027.9 mb)
[Sea-level pressure: 1028.8 mb]
Winds: from the ENE (60 degrees) at 3 MPH (3 knots; 1.5 m/s)
Visibility: 10 or more miles (16+ km)
Ceiling: at least 12,000 feet AGL
Clouds: sky clear below 12,000 feet AGL
Weather: automated observation with no human augmentation;
there may or may not be significant weather present at this time

METAR text: KMWH 180352Z 00000KT 10SM CLR 04/M01 A3034 RMK AO2 SLP285 T00441011
Conditions at: KMWH (MOSES LAKE , WA, US) observed 0352 UTC 18 March 2019
Temperature: 4.4°C (40°F)
Dewpoint: -1.1°C (30°F) [RH = 67%]
Pressure (altimeter): 30.34 inches Hg (1027.5 mb)
[Sea-level pressure: 1028.5 mb]
Winds: calm
Visibility: 10 or more miles (16+ km)
Ceiling: at least 12,000 feet AGL
Clouds: sky clear below 12,000 feet AGL
Weather: no significant weather observed at this time

METAR text: KMWH 180252Z 00000KT 10SM CLR 05/M01 A3033 RMK AO2 SLP284 T00501011 57010
Conditions at: KMWH (MOSES LAKE , WA, US) observed 0252 UTC 18 March 2019
Temperature: 5.0°C (41°F)
Dewpoint: -1.1°C (30°F) [RH = 65%]
Pressure (altimeter): 30.33 inches Hg (1027.2 mb)
[Sea-level pressure: 1028.4 mb]
Winds: calm
Visibility: 10 or more miles (16+ km)
Ceiling: at least 12,000 feet AGL
Clouds: sky clear below 12,000 feet AGL
Weather: no significant weather observed at this time

METAR text: KMWH 180152Z 26005KT 10SM CLR 06/M01 A3034 RMK AO2 SLP287 T00611006
Conditions at: KMWH (MOSES LAKE , WA, US) observed 0152 UTC 18 March 2019
Temperature: 6.1°C (43°F)
Dewpoint: -0.6°C (31°F) [RH = 62%]
Pressure (altimeter): 30.34 inches Hg (1027.5 mb)
[Sea-level pressure: 1028.7 mb]
Winds: from the W (260 degrees) at 6 MPH (5 knots; 2.6 m/s)
Visibility: 10 or more miles (16+ km)
Ceiling: at least 12,000 feet AGL
Clouds: sky clear below 12,000 feet AGL
Weather: no significant weather observed at this time

METAR text: KMWH 180052Z 26006KT 10SM CLR 08/01 A3035 RMK AO2 SLP289 T00830006
Conditions at: KMWH (MOSES LAKE , WA, US) observed 0052 UTC 18 March 2019
Temperature: 8.3°C (47°F)
Dewpoint: 0.6°C (33°F) [RH = 58%]
Pressure (altimeter): 30.35 inches Hg (1027.9 mb)
[Sea-level pressure: 1028.9 mb]
Winds: from the W (260 degrees) at 7 MPH (6 knots; 3.1 m/s)
Visibility: 10 or more miles (16+ km)
Ceiling: at least 12,000 feet AGL
Clouds: sky clear below 12,000 feet AGL
Weather: no significant weather observed at this time

METAR text: KMWH 172352Z 27007KT 10SM CLR 10/01 A3036 RMK AO2 SLP291 T01000006 10106 20061 56014
Conditions at: KMWH (MOSES LAKE , WA, US) observed 2352 UTC 17 March 2019
Temperature: 10.0°C (50°F)
Dewpoint: 0.6°C (33°F) [RH = 52%]
Pressure (altimeter): 30.36 inches Hg (1028.2 mb)
[Sea-level pressure: 1029.1 mb]
Winds: from the W (270 degrees) at 8 MPH (7 knots; 3.6 m/s)
Visibility: 10 or more miles (16+ km)
Ceiling: at least 12,000 feet AGL
Clouds: sky clear below 12,000 feet AGL
Weather: no significant weather observed at this time

METAR text: KMWH 172252Z 30006KT 10SM CLR 10/00 A3037 RMK AO2 SLP293 T01000000
Conditions at: KMWH (MOSES LAKE , WA, US) observed 2252 UTC 17 March 2019
Temperature: 10.0°C (50°F)
Dewpoint: 0.0°C (32°F) [RH = 50%]
Pressure (altimeter): 30.37 inches Hg (1028.5 mb)
[Sea-level pressure: 1029.3 mb]
Winds: from the WNW (300 degrees) at 7 MPH (6 knots; 3.1 m/s)
Visibility: 10 or more miles (16+ km)
Ceiling: at least 12,000 feet AGL
Clouds: sky clear below 12,000 feet AGL
Weather: no significant weather observed at this time

METAR text: KMWH 172152Z 32006KT 10SM CLR 09/01 A3039 RMK AO2 SLP298 T00940006
Conditions at: KMWH (MOSES LAKE , WA, US) observed 2152 UTC 17 March 2019
Temperature: 9.4°C (49°F)
Dewpoint: 0.6°C (33°F) [RH = 54%]
Pressure (altimeter): 30.39 inches Hg (1029.2 mb)
[Sea-level pressure: 1029.8 mb]
Winds: from the NW (320 degrees) at 7 MPH (6 knots; 3.1 m/s)
Visibility: 10 or more miles (16+ km)
Ceiling: at least 12,000 feet AGL
Clouds: sky clear below 12,000 feet AGL
Weather: no significant weather observed at this time

METAR text: KMWH 172052Z 31007KT 10SM CLR 09/01 A3041 RMK AO2 SLP305 T00890006 55001
Conditions at: KMWH (MOSES LAKE , WA, US) observed 2052 UTC 17 March 2019
Temperature: 8.9°C (48°F)
Dewpoint: 0.6°C (33°F) [RH = 56%]
Pressure (altimeter): 30.41 inches Hg (1029.9 mb)
[Sea-level pressure: 1030.5 mb]
Winds: from the NW (310 degrees) at 8 MPH (7 knots; 3.6 m/s)
Visibility: 10 or more miles (16+ km)
Ceiling: at least 12,000 feet AGL
Clouds: sky clear below 12,000 feet AGL
Weather: no significant weather observed at this time

METAR text: KMWH 171952Z 32005KT 10SM CLR 08/00 A3040 RMK AO2 SLP305 T00830000
Conditions at: KMWH (MOSES LAKE , WA, US) observed 1952 UTC 17 March 2019
Temperature: 8.3°C (47°F)
Dewpoint: 0.0°C (32°F) [RH = 56%]
Pressure (altimeter): 30.40 inches Hg (1029.5 mb)
[Sea-level pressure: 1030.5 mb]
Winds: from the NW (320 degrees) at 6 MPH (5 knots; 2.6 m/s)
Visibility: 10 or more miles (16+ km)
Ceiling: at least 12,000 feet AGL
Clouds: sky clear below 12,000 feet AGL
Weather: no significant weather observed at this time

METAR text: KMWH 171852Z 35003KT 10SM CLR 07/M01 A3040 RMK AO2 SLP306 T00721006
Conditions at: KMWH (MOSES LAKE , WA, US) observed 1852 UTC 17 March 2019
Temperature: 7.2°C (45°F)
Dewpoint: -0.6°C (31°F) [RH = 58%]
Pressure (altimeter): 30.40 inches Hg (1029.5 mb)
[Sea-level pressure: 1030.6 mb]
Winds: from the N (350 degrees) at 3 MPH (3 knots; 1.5 m/s)
Visibility: 10 or more miles (16+ km)
Ceiling: at least 12,000 feet AGL
Clouds: sky clear below 12,000 feet AGL
Weather: no significant weather observed at this time

METAR text: KMWH 171752Z 01005KT 10SM CLR 06/M01 A3041 RMK AO2 SLP307 T00611006 10061 21017 51012
Conditions at: KMWH (MOSES LAKE , WA, US) observed 1752 UTC 17 March 2019
Temperature: 6.1°C (43°F)
Dewpoint: -0.6°C (31°F) [RH = 62%]
Pressure (altimeter): 30.41 inches Hg (1029.9 mb)
[Sea-level pressure: 1030.7 mb]
Winds: from the N (10 degrees) at 6 MPH (5 knots; 2.6 m/s)
Visibility: 10 or more miles (16+ km)
Ceiling: at least 12,000 feet AGL
Clouds: sky clear below 12,000 feet AGL
Weather: no significant weather observed at this time

Forecast for: KMWH (MOSES LAKE , WA, US)
Text: KMWH 182338Z 1900/1924 36007KT P6SM SKC
Forecast period: 0000 UTC 19 March 2019 to 0000 UTC 20 March 2019
Forecast type: FROM: standard forecast or significant change
Winds: from the N (360 degrees) at 8 MPH (7 knots; 3.6 m/s)
Visibility: 6 or more miles 10+ km)
Clouds: clear skies
Weather: no significant weather forecast for this period